createdAt,value
2018-08-11T00:00:46.465Z,20.25
2018-08-11T00:03:15.461Z,20.28
2018-08-11T00:05:43.710Z,20.37
2018-08-11T00:08:11.970Z,20.41
2018-08-11T00:10:40.132Z,20.45
2018-08-11T00:13:09.120Z,20.46
2018-08-11T00:15:37.252Z,20.59
2018-08-11T00:18:06.144Z,20.72
2018-08-11T00:20:34.224Z,20.58
2018-08-11T00:23:03.562Z,20.68
2018-08-11T00:25:31.787Z,20.64
2018-08-11T00:28:00.824Z,20.73
2018-08-11T00:30:28.980Z,20.75
2018-08-11T00:32:57.125Z,20.87
2018-08-11T00:35:25.342Z,20.73
2018-08-11T00:37:53.600Z,20.66
2018-08-11T00:40:21.926Z,20.63
2018-08-11T00:42:50.552Z,20.49
2018-08-11T00:45:19.190Z,20.44
2018-08-11T00:47:47.338Z,20.38
2018-08-11T00:50:22.369Z,20.33
2018-08-11T00:52:51.478Z,20.16
2018-08-11T00:55:19.703Z,19.99
2018-08-11T00:57:47.953Z,19.91
2018-08-11T01:00:17.829Z,19.96
2018-08-11T01:02:46.071Z,19.99
2018-08-11T01:05:17.076Z,19.94
2018-08-11T01:07:46.382Z,19.85
2018-08-11T01:10:15.160Z,19.80
2018-08-11T01:12:44.209Z,19.78
2018-08-11T01:15:15.526Z,19.71
2018-08-11T01:17:44.341Z,19.64
2018-08-11T01:20:13.043Z,19.63
2018-08-11T01:22:42.074Z,19.56
2018-08-11T01:25:11.169Z,19.55
2018-08-11T01:27:40.413Z,19.47
2018-08-11T01:30:12.786Z,19.45
2018-08-11T01:32:41.015Z,19.47
2018-08-11T01:35:09.936Z,19.46
2018-08-11T01:37:39.088Z,19.50
2018-08-11T01:40:09.014Z,19.51
2018-08-11T01:42:37.222Z,19.48
2018-08-11T01:45:06.532Z,19.43
2018-08-11T01:47:34.770Z,19.43
2018-08-11T01:50:03.146Z,19.41
2018-08-11T01:52:31.310Z,19.41
2018-08-11T01:54:59.472Z,19.40
2018-08-11T01:57:27.648Z,19.36
2018-08-11T01:59:55.806Z,19.43
2018-08-11T02:02:23.942Z,19.47
2018-08-11T02:04:52.100Z,19.40
2018-08-11T02:07:20.380Z,19.65
2018-08-11T02:09:48.596Z,19.61
2018-08-11T02:12:16.828Z,19.48
2018-08-11T02:14:45.016Z,19.43
2018-08-11T02:17:13.168Z,19.50
2018-08-11T02:19:41.338Z,19.45
2018-08-11T02:22:09.532Z,19.50
2018-08-11T02:24:37.801Z,19.42
2018-08-11T02:27:06.148Z,19.43
2018-08-11T02:29:34.312Z,19.30
2018-08-11T02:32:02.492Z,19.26
2018-08-11T02:34:30.682Z,19.31
2018-08-11T02:36:58.848Z,19.28
2018-08-11T02:39:27.004Z,19.27
2018-08-11T02:41:55.327Z,19.09
2018-08-11T02:44:23.497Z,19.05
2018-08-11T02:46:51.733Z,19.22
2018-08-11T02:49:20.053Z,19.10
2018-08-11T02:51:48.263Z,19.13
2018-08-11T02:54:16.340Z,19.09
2018-08-11T02:56:44.488Z,19.04
2018-08-11T02:59:12.573Z,19.00
2018-08-11T03:01:40.761Z,18.98
2018-08-11T03:04:08.885Z,18.98
2018-08-11T03:06:37.079Z,18.94
2018-08-11T03:09:07.527Z,19.03
2018-08-11T03:11:35.721Z,18.87
2018-08-11T03:14:04.456Z,18.92
2018-08-11T03:16:32.737Z,18.95
2018-08-11T03:19:01.623Z,18.93
2018-08-11T03:21:29.773Z,18.82
2018-08-11T03:23:57.875Z,18.79
2018-08-11T03:26:26.074Z,18.73
2018-08-11T03:28:54.387Z,18.70
2018-08-11T03:31:22.509Z,18.70
2018-08-11T03:33:50.595Z,18.79
2018-08-11T03:36:18.790Z,18.92
2018-08-11T03:38:46.907Z,18.96
2018-08-11T03:41:15.066Z,18.83
2018-08-11T03:43:43.205Z,18.91
2018-08-11T03:46:11.639Z,18.92
2018-08-11T03:48:39.810Z,18.84
2018-08-11T03:51:08.043Z,18.81
2018-08-11T03:53:36.151Z,18.89
2018-08-11T03:56:04.301Z,19.08
2018-08-11T03:58:32.369Z,19.20
2018-08-11T04:01:00.575Z,19.28
2018-08-11T04:03:28.697Z,19.36
2018-08-11T04:05:56.881Z,19.34
2018-08-11T04:08:25.249Z,19.22
2018-08-11T04:10:53.413Z,19.31
2018-08-11T04:13:21.521Z,19.13
2018-08-11T04:15:49.756Z,19.07
2018-08-11T04:18:17.940Z,19.27
2018-08-11T04:20:46.056Z,19.36
2018-08-11T04:23:14.287Z,19.43
2018-08-11T04:25:42.406Z,19.49
2018-08-11T04:28:10.740Z,19.51
2018-08-11T04:30:38.882Z,19.39
2018-08-11T04:33:07.054Z,19.45
2018-08-11T04:35:35.208Z,19.34
2018-08-11T04:38:03.415Z,19.45
2018-08-11T04:40:31.869Z,19.61
2018-08-11T04:43:00.284Z,19.36
2018-08-11T04:45:28.429Z,19.32
2018-08-11T04:47:56.615Z,19.36
2018-08-11T04:50:24.733Z,19.43
2018-08-11T04:52:52.896Z,19.41
2018-08-11T04:55:21.055Z,19.41
2018-08-11T04:57:49.310Z,19.24
2018-08-11T05:00:17.470Z,19.30
2018-08-11T05:02:45.560Z,19.32
2018-08-11T05:05:13.763Z,19.23
2018-08-11T05:07:41.870Z,19.19
2018-08-11T05:10:10.025Z,19.22
2018-08-11T05:12:38.157Z,19.20
2018-08-11T05:15:07.877Z,19.24
2018-08-11T05:17:36.021Z,19.39
2018-08-11T05:20:04.531Z,19.57
2018-08-11T05:22:32.737Z,19.76
2018-08-11T05:25:00.863Z,19.86
2018-08-11T05:27:29.073Z,20.13
2018-08-11T05:29:57.281Z,20.63
2018-08-11T05:32:25.897Z,20.71
2018-08-11T05:34:54.938Z,21.09
2018-08-11T05:37:23.059Z,21.20
2018-08-11T05:39:52.207Z,21.17
2018-08-11T05:42:20.516Z,21.31
2018-08-11T05:44:48.729Z,21.46
2018-08-11T05:47:17.087Z,21.42
2018-08-11T05:49:45.431Z,21.46
2018-08-11T05:52:13.613Z,22.32
2018-08-11T05:54:41.965Z,23.43
2018-08-11T05:57:10.048Z,24.81
2018-08-11T05:59:38.358Z,25.69
2018-08-11T06:02:07.218Z,25.68
2018-08-11T06:04:35.392Z,25.28
2018-08-11T06:07:04.008Z,24.54
2018-08-11T06:09:32.116Z,24.26
2018-08-11T06:12:00.407Z,24.09
2018-08-11T06:14:28.652Z,24.07
2018-08-11T06:16:57.051Z,23.99
2018-08-11T06:19:25.508Z,24.27
2018-08-11T06:21:53.904Z,24.13
2018-08-11T06:24:22.102Z,24.32
2018-08-11T06:26:50.419Z,24.70
2018-08-11T06:29:18.590Z,24.80
2018-08-11T06:31:46.864Z,24.92
2018-08-11T06:34:14.982Z,24.86
2018-08-11T06:36:43.122Z,25.04
2018-08-11T06:39:13.215Z,25.29
2018-08-11T06:41:42.264Z,25.50
2018-08-11T06:44:11.111Z,26.01
2018-08-11T06:46:39.387Z,26.32
2018-08-11T06:49:07.626Z,26.75
2018-08-11T06:51:36.399Z,26.50
2018-08-11T06:54:04.739Z,26.58
2018-08-11T06:56:32.945Z,26.66
2018-08-11T06:59:01.175Z,26.78
2018-08-11T07:01:29.295Z,27.41
2018-08-11T07:03:57.497Z,27.98
2018-08-11T07:06:25.695Z,28.83
2018-08-11T07:08:53.836Z,30.66
2018-08-11T07:11:22.101Z,31.59
2018-08-11T07:13:50.282Z,33.14
2018-08-11T07:16:18.833Z,33.84
2018-08-11T07:18:46.949Z,33.76
2018-08-11T07:21:15.115Z,35.13
2018-08-11T07:23:43.205Z,34.61
2018-08-11T07:26:11.429Z,32.96
2018-08-11T07:28:39.713Z,31.36
2018-08-11T07:31:07.956Z,30.34
2018-08-11T07:33:36.230Z,29.69
2018-08-11T07:36:04.537Z,30.01
2018-08-11T07:38:33.736Z,30.34
2018-08-11T07:41:02.039Z,31.00
2018-08-11T07:43:30.466Z,31.52
2018-08-11T07:45:58.827Z,31.10
2018-08-11T07:48:27.036Z,31.03
2018-08-11T07:50:55.275Z,30.90
2018-08-11T07:53:23.524Z,30.81
2018-08-11T07:55:52.004Z,30.96
2018-08-11T07:58:20.238Z,31.22
2018-08-11T08:00:48.454Z,30.89
2018-08-11T08:03:16.918Z,30.49
2018-08-11T08:05:45.052Z,30.65
2018-08-11T08:08:13.187Z,31.10
2018-08-11T08:10:41.347Z,30.29
2018-08-11T08:13:09.619Z,30.20
2018-08-11T08:15:38.198Z,29.53
2018-08-11T08:18:07.157Z,28.86
2018-08-11T08:20:35.301Z,28.53
2018-08-11T08:23:03.429Z,28.11
2018-08-11T08:25:31.613Z,28.50
2018-08-11T08:28:00.645Z,28.40
2018-08-11T08:30:28.831Z,28.70
2018-08-11T08:32:57.079Z,29.25
2018-08-11T08:35:25.270Z,30.65
2018-08-11T08:37:53.571Z,31.00
2018-08-11T08:40:21.797Z,30.76
2018-08-11T08:42:50.057Z,30.56
2018-08-11T08:45:18.263Z,30.60
2018-08-11T08:47:46.507Z,30.19
2018-08-11T08:50:14.628Z,30.13
2018-08-11T08:52:43.282Z,30.29
2018-08-11T08:55:11.647Z,29.63
2018-08-11T08:57:39.852Z,30.10
2018-08-11T09:00:08.012Z,30.37
2018-08-11T09:02:36.352Z,29.76
2018-08-11T09:05:04.600Z,30.16
2018-08-11T09:07:32.864Z,30.56
2018-08-11T09:10:01.111Z,30.61
2018-08-11T09:12:29.342Z,31.11
2018-08-11T09:14:57.784Z,32.34
2018-08-11T09:17:26.653Z,33.67
2018-08-11T09:19:54.835Z,35.35
2018-08-11T09:22:22.976Z,36.76
2018-08-11T09:24:51.231Z,35.98
2018-08-11T09:27:19.420Z,36.46
2018-08-11T09:29:47.687Z,36.69
2018-08-11T09:32:15.845Z,37.23
2018-08-11T09:34:44.084Z,37.86
2018-08-11T09:37:12.364Z,36.65
2018-08-11T09:39:41.032Z,35.98
2018-08-11T09:42:09.324Z,36.27
2018-08-11T09:44:37.580Z,39.33
2018-08-11T09:47:05.821Z,41.41
2018-08-11T09:49:34.090Z,42.94
2018-08-11T09:52:02.274Z,44.00
2018-08-11T09:54:30.502Z,46.31
2018-08-11T09:56:58.772Z,45.33
2018-08-11T09:59:27.858Z,43.78
2018-08-11T10:02:01.652Z,41.34
2018-08-11T10:04:29.946Z,38.19
2018-08-11T10:06:58.208Z,42.49
2018-08-11T10:09:26.490Z,43.93
2018-08-11T10:11:54.756Z,46.53
2018-08-11T10:14:22.962Z,44.62
2018-08-11T10:16:51.132Z,47.15
2018-08-11T10:19:19.318Z,45.42
2018-08-11T10:21:47.456Z,45.74
2018-08-11T10:24:15.620Z,43.09
2018-08-11T10:26:44.134Z,40.10
2018-08-11T10:29:12.226Z,36.95
2018-08-11T10:31:40.442Z,35.58
2018-08-11T10:34:08.713Z,34.41
2018-08-11T10:36:36.948Z,37.28
2018-08-11T10:39:09.809Z,38.07
2018-08-11T10:41:38.539Z,37.60
2018-08-11T10:44:07.014Z,38.20
2018-08-11T10:46:35.470Z,36.85
2018-08-11T10:49:03.976Z,35.87
2018-08-11T10:51:32.170Z,33.95
2018-08-11T10:54:00.585Z,33.20
2018-08-11T10:56:28.798Z,38.39
2018-08-11T10:58:57.080Z,42.16
2018-08-11T11:01:25.378Z,44.60
2018-08-11T11:03:53.779Z,46.36
2018-08-11T11:06:22.033Z,46.15
2018-08-11T11:08:50.251Z,43.60
2018-08-11T11:11:18.492Z,40.01
2018-08-11T11:13:46.684Z,41.79
2018-08-11T11:16:14.908Z,45.45
2018-08-11T11:18:43.164Z,43.14
2018-08-11T11:21:11.480Z,44.53
2018-08-11T11:23:39.640Z,44.80
2018-08-11T11:26:07.884Z,48.75
2018-08-11T11:28:35.997Z,46.27
2018-08-11T11:31:04.390Z,44.64
2018-08-11T11:33:32.624Z,47.04
2018-08-11T11:36:00.886Z,48.73
2018-08-11T11:38:29.245Z,50.75
2018-08-11T11:40:57.836Z,51.37
2018-08-11T11:43:26.760Z,51.34
2018-08-11T11:45:55.273Z,52.48
2018-08-11T11:48:23.496Z,49.91
2018-08-11T11:50:51.740Z,50.78
2018-08-11T11:53:19.968Z,49.81
2018-08-11T11:55:48.129Z,49.41
2018-08-11T11:58:17.076Z,48.73
2018-08-11T12:00:45.359Z,45.86
2018-08-11T12:03:13.746Z,44.44
2018-08-11T12:05:42.137Z,43.15
2018-08-11T12:08:10.593Z,42.85
2018-08-11T12:10:38.773Z,40.33
2018-08-11T12:13:07.241Z,41.48
2018-08-11T12:15:35.474Z,45.96
2018-08-11T12:18:04.648Z,48.40
2018-08-11T12:20:32.858Z,43.10
2018-08-11T12:23:01.097Z,46.79
2018-08-11T12:25:29.914Z,48.73
2018-08-11T12:28:00.015Z,48.03
2018-08-11T12:30:28.178Z,46.36
2018-08-11T12:32:56.350Z,47.41
2018-08-11T12:35:24.528Z,49.49
2018-08-11T12:37:52.800Z,51.71
2018-08-11T12:40:21.116Z,52.40
2018-08-11T12:42:49.337Z,53.03
2018-08-11T12:45:17.593Z,50.98
2018-08-11T12:47:45.887Z,53.19
2018-08-11T12:50:14.091Z,52.47
2018-08-11T12:52:42.227Z,53.48
2018-08-11T12:55:10.377Z,52.33
2018-08-11T12:57:38.591Z,51.25
2018-08-11T13:00:08.405Z,52.53
2018-08-11T13:02:36.871Z,51.51
2018-08-11T13:05:05.089Z,49.08
2018-08-11T13:07:33.521Z,48.27
2018-08-11T13:10:01.628Z,48.94
2018-08-11T13:12:30.291Z,49.28
2018-08-11T13:14:58.583Z,49.17
2018-08-11T13:17:26.732Z,45.72
2018-08-11T13:19:54.989Z,42.31
2018-08-11T13:22:23.234Z,42.31
2018-08-11T13:24:51.444Z,42.91
2018-08-11T13:27:19.652Z,45.39
2018-08-11T13:29:47.864Z,46.79
2018-08-11T13:32:16.094Z,47.81
2018-08-11T13:34:44.342Z,47.43
2018-08-11T13:37:12.545Z,47.31
2018-08-11T13:39:47.523Z,47.48
2018-08-11T13:42:15.751Z,46.13
2018-08-11T13:44:43.945Z,46.45
2018-08-11T13:47:12.076Z,46.80
2018-08-11T13:49:40.380Z,46.98
2018-08-11T13:52:08.537Z,45.60
2018-08-11T13:54:36.753Z,46.02
2018-08-11T13:57:05.439Z,43.70
2018-08-11T13:59:33.782Z,43.02
2018-08-11T14:02:02.234Z,43.87
2018-08-11T14:04:30.638Z,43.62
2018-08-11T14:06:58.886Z,43.53
2018-08-11T14:09:27.170Z,42.28
2018-08-11T14:11:55.432Z,39.29
2018-08-11T14:14:23.653Z,37.98
2018-08-11T14:16:51.824Z,35.71
2018-08-11T14:19:20.059Z,34.17
2018-08-11T14:21:48.321Z,32.75
2018-08-11T14:24:16.544Z,31.99
2018-08-11T14:26:44.723Z,31.21
2018-08-11T14:29:13.029Z,30.32
2018-08-11T14:31:41.378Z,30.06
2018-08-11T14:34:09.596Z,29.69
2018-08-11T14:36:37.840Z,29.43
2018-08-11T14:39:08.316Z,29.22
2018-08-11T14:41:37.041Z,29.06
2018-08-11T14:44:06.497Z,28.91
2018-08-11T14:46:34.786Z,28.78
2018-08-11T14:49:02.951Z,28.48
2018-08-11T14:51:32.081Z,28.21
2018-08-11T14:54:00.517Z,28.31
2018-08-11T14:56:28.749Z,28.44
2018-08-11T14:58:56.919Z,28.65
2018-08-11T15:01:25.181Z,28.58
2018-08-11T15:03:53.371Z,28.89
2018-08-11T15:06:22.128Z,28.88
2018-08-11T15:08:50.469Z,28.66
2018-08-11T15:11:18.827Z,28.39
2018-08-11T15:13:47.052Z,28.26
2018-08-11T15:16:16.127Z,28.26
2018-08-11T15:18:44.295Z,28.34
2018-08-11T15:21:12.462Z,28.20
2018-08-11T15:23:40.706Z,28.28
2018-08-11T15:26:09.068Z,28.00
2018-08-11T15:28:37.263Z,27.80
2018-08-11T15:31:05.430Z,27.69
2018-08-11T15:33:33.831Z,27.61
2018-08-11T15:36:02.064Z,27.63
2018-08-11T15:38:30.486Z,27.49
2018-08-11T15:40:58.689Z,27.23
2018-08-11T15:43:26.999Z,27.35
2018-08-11T15:45:56.177Z,27.46
2018-08-11T15:48:24.356Z,27.69
2018-08-11T15:50:53.744Z,27.89
2018-08-11T15:53:21.879Z,27.88
2018-08-11T15:55:50.260Z,27.62
2018-08-11T15:58:18.390Z,27.58
2018-08-11T16:00:46.682Z,27.56
2018-08-11T16:03:14.982Z,27.46
2018-08-11T16:05:43.099Z,27.42
2018-08-11T16:08:11.485Z,27.33
2018-08-11T16:10:40.343Z,27.28
2018-08-11T16:13:08.666Z,27.20
2018-08-11T16:15:36.909Z,26.93
2018-08-11T16:18:05.251Z,26.93
2018-08-11T16:20:33.408Z,27.14
2018-08-11T16:23:01.619Z,27.08
2018-08-11T16:25:30.369Z,27.09
2018-08-11T16:27:58.804Z,27.13
2018-08-11T16:30:27.553Z,27.16
2018-08-11T16:32:55.792Z,26.80
2018-08-11T16:35:23.967Z,26.55
2018-08-11T16:37:52.568Z,26.49
2018-08-11T16:40:20.883Z,26.33
2018-08-11T16:42:49.170Z,26.35
2018-08-11T16:45:17.460Z,26.23
2018-08-11T16:47:46.031Z,26.25
2018-08-11T16:50:14.235Z,26.08
2018-08-11T16:52:42.438Z,26.04
2018-08-11T16:55:10.539Z,26.22
2018-08-11T16:57:38.723Z,26.12
2018-08-11T17:00:10.463Z,25.91
2018-08-11T17:02:39.205Z,26.00
2018-08-11T17:05:07.370Z,25.75
2018-08-11T17:07:35.595Z,25.76
2018-08-11T17:10:05.880Z,25.80
2018-08-11T17:12:34.073Z,25.60
2018-08-11T17:15:02.515Z,25.39
2018-08-11T17:17:31.087Z,25.40
2018-08-11T17:19:59.263Z,25.48
2018-08-11T17:22:27.443Z,25.52
2018-08-11T17:24:55.556Z,25.37
2018-08-11T17:27:24.654Z,25.21
2018-08-11T17:29:52.931Z,25.00
2018-08-11T17:32:21.229Z,24.76
2018-08-11T17:34:50.342Z,24.63
2018-08-11T17:37:18.824Z,24.75
2018-08-11T17:39:47.140Z,24.48
2018-08-11T17:42:15.832Z,24.30
2018-08-11T17:44:44.308Z,24.22
2018-08-11T17:47:12.572Z,24.13
2018-08-11T17:49:41.068Z,24.21
2018-08-11T17:52:10.113Z,24.15
2018-08-11T17:54:38.356Z,24.12
2018-08-11T17:57:06.569Z,24.01
2018-08-11T17:59:34.860Z,24.07
2018-08-11T18:02:03.184Z,23.96
2018-08-11T18:04:31.405Z,23.64
2018-08-11T18:06:59.670Z,23.51
2018-08-11T18:09:27.829Z,23.44
2018-08-11T18:11:56.167Z,23.38
2018-08-11T18:14:24.332Z,23.19
2018-08-11T18:16:52.481Z,23.07
2018-08-11T18:19:20.593Z,23.03
2018-08-11T18:21:49.827Z,22.89
2018-08-11T18:24:18.115Z,22.82
2018-08-11T18:26:46.343Z,22.80
2018-08-11T18:29:14.623Z,22.69
2018-08-11T18:31:42.751Z,22.61
2018-08-11T18:34:10.935Z,22.49
2018-08-11T18:36:39.111Z,22.43
2018-08-11T18:39:11.901Z,22.38
2018-08-11T18:41:41.203Z,22.35
2018-08-11T18:44:09.483Z,22.30
2018-08-11T18:46:37.706Z,22.27
2018-08-11T18:49:06.365Z,22.14
2018-08-11T18:51:34.837Z,22.03
2018-08-11T18:54:03.075Z,21.95
2018-08-11T18:56:31.688Z,22.00
2018-08-11T18:59:00.056Z,21.95
2018-08-11T19:01:28.283Z,21.83
2018-08-11T19:03:56.623Z,21.74
2018-08-11T19:06:25.599Z,21.68
2018-08-11T19:08:53.826Z,21.80
2018-08-11T19:11:22.031Z,21.83
2018-08-11T19:13:50.199Z,21.85
2018-08-11T19:16:18.568Z,21.78
2018-08-11T19:18:46.820Z,21.72
2018-08-11T19:21:15.027Z,21.67
2018-08-11T19:23:43.270Z,21.69
2018-08-11T19:26:11.848Z,21.73
2018-08-11T19:28:40.130Z,21.71
2018-08-11T19:31:08.387Z,21.62
2018-08-11T19:33:36.627Z,21.49
2018-08-11T19:36:04.985Z,21.32
2018-08-11T19:38:33.272Z,21.35
2018-08-11T19:41:01.640Z,21.37
2018-08-11T19:43:29.858Z,21.36
2018-08-11T19:45:58.287Z,21.39
2018-08-11T19:48:27.209Z,21.32
2018-08-11T19:50:55.557Z,21.24
2018-08-11T19:53:23.832Z,21.18
2018-08-11T19:55:52.081Z,21.16
2018-08-11T19:58:20.702Z,21.02
2018-08-11T20:00:49.064Z,21.03
2018-08-11T20:03:17.270Z,21.04
2018-08-11T20:05:45.583Z,21.00
2018-08-11T20:08:13.774Z,21.03
2018-08-11T20:10:42.368Z,20.94
2018-08-11T20:13:11.672Z,20.94
2018-08-11T20:15:40.152Z,20.75
2018-08-11T20:18:08.368Z,20.67
2018-08-11T20:20:36.660Z,20.76
2018-08-11T20:23:04.935Z,20.75
2018-08-11T20:25:33.351Z,20.72
2018-08-11T20:28:02.525Z,20.60
2018-08-11T20:30:30.829Z,20.57
2018-08-11T20:32:59.122Z,20.48
2018-08-11T20:35:27.319Z,20.46
2018-08-11T20:37:56.185Z,20.41
2018-08-11T20:40:24.555Z,20.33
2018-08-11T20:42:52.837Z,20.21
2018-08-11T20:45:21.137Z,20.19
2018-08-11T20:47:50.329Z,20.18
2018-08-11T20:50:18.710Z,20.17
2018-08-11T20:52:46.884Z,20.06
2018-08-11T20:55:15.210Z,20.06
2018-08-11T20:57:43.385Z,20.00
2018-08-11T21:00:12.854Z,19.95
2018-08-11T21:02:41.327Z,20.01
2018-08-11T21:05:12.278Z,19.92
2018-08-11T21:07:40.479Z,19.92
2018-08-11T21:10:12.468Z,19.77
2018-08-11T21:12:41.396Z,19.68
2018-08-11T21:15:10.781Z,19.59
2018-08-11T21:17:39.097Z,19.54
2018-08-11T21:20:11.759Z,19.41
2018-08-11T21:22:40.835Z,19.38
2018-08-11T21:25:10.803Z,19.31
2018-08-11T21:27:39.232Z,19.25
2018-08-11T21:30:12.164Z,19.22
2018-08-11T21:32:40.587Z,19.14
2018-08-11T21:35:08.919Z,19.11
2018-08-11T21:37:37.108Z,19.09
2018-08-11T21:40:09.389Z,19.06
2018-08-11T21:42:37.631Z,19.04
2018-08-11T21:45:06.049Z,18.99
2018-08-11T21:47:34.340Z,18.93
2018-08-11T21:50:02.731Z,18.86
2018-08-11T21:52:31.155Z,18.74
2018-08-11T21:54:59.291Z,18.67
2018-08-11T21:57:27.549Z,18.63
2018-08-11T21:59:55.749Z,18.65
2018-08-11T22:02:23.883Z,18.57
2018-08-11T22:04:52.034Z,18.50
2018-08-11T22:07:20.185Z,18.43
2018-08-11T22:09:48.346Z,18.43
2018-08-11T22:12:16.633Z,18.50
2018-08-11T22:14:44.821Z,18.50
2018-08-11T22:17:13.071Z,18.45
2018-08-11T22:19:41.625Z,18.39
2018-08-11T22:22:09.804Z,18.33
2018-08-11T22:24:37.949Z,18.36
2018-08-11T22:27:06.346Z,18.24
2018-08-11T22:29:34.572Z,18.24
2018-08-11T22:32:02.764Z,18.27
2018-08-11T22:34:31.006Z,18.19
2018-08-11T22:36:59.177Z,18.13
2018-08-11T22:39:27.319Z,18.14
2018-08-11T22:41:55.585Z,18.10
2018-08-11T22:44:23.713Z,18.12
2018-08-11T22:46:51.993Z,18.07
2018-08-11T22:49:20.876Z,18.09
2018-08-11T22:51:49.069Z,18.03
2018-08-11T22:54:17.193Z,17.99
2018-08-11T22:56:45.421Z,17.98
2018-08-11T22:59:13.639Z,17.91
2018-08-11T23:01:41.943Z,17.89
2018-08-11T23:04:10.354Z,17.85
2018-08-11T23:06:38.533Z,17.88
2018-08-11T23:09:07.406Z,17.99
2018-08-11T23:11:35.610Z,18.08
2018-08-11T23:14:03.924Z,18.07
2018-08-11T23:16:32.042Z,18.09
2018-08-11T23:19:00.216Z,18.14
2018-08-11T23:21:28.444Z,18.02
2018-08-11T23:23:56.731Z,17.92
2018-08-11T23:26:24.961Z,17.89
2018-08-11T23:28:53.180Z,18.05
2018-08-11T23:31:21.364Z,17.92
2018-08-11T23:33:49.668Z,18.00
2018-08-11T23:36:17.924Z,17.88
2018-08-11T23:38:46.106Z,17.93
2018-08-11T23:41:14.924Z,17.93
2018-08-11T23:43:44.165Z,17.95
2018-08-11T23:46:12.457Z,17.90
2018-08-11T23:48:40.727Z,17.78
2018-08-11T23:51:09.000Z,17.73
2018-08-11T23:53:37.242Z,17.68
2018-08-11T23:56:05.640Z,17.66
2018-08-11T23:58:33.809Z,17.80
